Time;durP1;ratioP1;P1;durP2;ratioP2;P2;SDS_P1;SDS_P2;PMS_P1;PMS_P2;Temp;Humidity;BMP_temperature;BMP_pressure;BME280_temperature;BME280_humidity;BME280_pressure;Samples;Min_cycle;Max_cycle;Signal;HPM_P1;HPM_P2
2021/12/03 00:00:34;;;;;;;12.02;5.00;;;;;;;2.86;71.42;98517.84;5125027;28;20058;-67
2021/12/03 00:03:25;;;;;;;11.55;4.78;;;;;;;3.38;69.35;98521.16;5123243;29;20050;-66
2021/12/03 00:06:15;;;;;;;11.57;5.93;;;;;;;3.09;69.20;98503.16;5120694;29;20425;-68
2021/12/03 00:09:07;;;;;;;11.68;4.78;;;;;;;3.03;70.07;98532.38;5123607;29;20153;-70
2021/12/03 00:11:57;;;;;;;10.68;5.40;;;;;;;2.84;69.81;98530.22;5124511;29;20061;-66
2021/12/03 00:14:47;;;;;;;7.50;4.72;;;;;;;2.82;71.08;98551.28;5125296;28;20066;-67
2021/12/03 00:17:38;;;;;;;8.35;4.93;;;;;;;2.85;71.23;98552.84;5122481;29;20050;-68
2021/12/03 00:20:28;;;;;;;11.05;5.25;;;;;;;3.20;69.46;98560.84;5125002;29;20445;-68
2021/12/03 00:23:20;;;;;;;14.38;5.15;;;;;;;2.59;71.21;98572.97;5125063;29;20739;-67
2021/12/03 00:26:11;;;;;;;13.85;6.05;;;;;;;3.08;70.42;98580.06;5111713;28;20090;-68
2021/12/03 00:29:01;;;;;;;12.35;5.75;;;;;;;2.39;72.88;98578.69;5119566;29;20154;-68
2021/12/03 00:31:51;;;;;;;14.40;5.95;;;;;;;2.36;72.61;98577.13;5122862;29;20962;-68
2021/12/03 00:34:41;;;;;;;13.27;6.15;;;;;;;2.37;73.53;98572.72;5124560;29;20054;-68
2021/12/03 00:37:31;;;;;;;11.48;5.80;;;;;;;2.31;72.84;98581.81;5123879;29;20053;-69
2021/12/03 00:40:25;;;;;;;12.55;5.85;;;;;;;3.12;70.01;98573.66;5124637;29;20050;-68
2021/12/03 00:43:15;;;;;;;10.77;5.90;;;;;;;3.00;69.61;98592.84;5124910;29;20058;-68
2021/12/03 00:46:06;;;;;;;16.52;6.90;;;;;;;2.67;71.50;98599.44;5103213;29;20524;-69
2021/12/03 00:48:57;;;;;;;14.00;5.90;;;;;;;2.57;71.55;98577.44;5122600;29;20054;-68
2021/12/03 00:51:47;;;;;;;15.65;6.43;;;;;;;2.04;72.08;98572.22;5122717;29;20066;-66
2021/12/03 00:54:37;;;;;;;14.63;6.57;;;;;;;2.39;73.75;98621.41;5120793;29;20043;-69
2021/12/03 00:57:27;;;;;;;13.85;6.72;;;;;;;2.31;73.49;98621.88;5123832;29;20062;-67
2021/12/03 01:00:23;;;;;;;15.90;6.82;;;;;;;3.06;70.67;98624.69;5124107;29;20050;-68
2021/12/03 01:03:14;;;;;;;13.43;6.90;;;;;;;2.82;70.95;98624.59;5121387;28;20043;-67
2021/12/03 01:06:04;;;;;;;14.95;7.43;;;;;;;2.82;72.26;98629.00;5119395;28;20113;-68
2021/12/03 01:08:54;;;;;;;20.55;6.57;;;;;;;2.59;72.00;98631.38;5122636;28;20039;-66
2021/12/03 01:11:45;;;;;;;21.45;8.18;;;;;;;3.27;69.68;98627.59;5122734;29;20506;-66
2021/12/03 01:14:36;;;;;;;15.68;7.57;;;;;;;2.05;72.58;98630.59;5123779;29;20070;-66
2021/12/03 01:17:26;;;;;;;11.82;6.70;;;;;;;2.86;71.21;98637.47;5123168;29;20148;-67
2021/12/03 01:20:17;;;;;;;16.20;7.53;;;;;;;3.16;69.27;98645.84;5122291;29;20561;-68
2021/12/03 01:23:10;;;;;;;16.02;6.95;;;;;;;3.29;68.91;98648.47;5119606;29;20054;-66
2021/12/03 01:26:01;;;;;;;15.95;7.82;;;;;;;3.46;68.68;98647.28;5122229;29;20082;-67
2021/12/03 01:28:51;;;;;;;14.77;7.55;;;;;;;3.29;68.58;98651.91;5123950;28;20050;-68
2021/12/03 01:31:41;;;;;;;15.10;7.20;;;;;;;2.72;71.48;98662.81;5117091;29;20533;-66
2021/12/03 01:34:31;;;;;;;18.80;7.40;;;;;;;2.72;70.29;98662.81;5123115;29;20146;-67
2021/12/03 01:37:21;;;;;;;15.27;7.32;;;;;;;3.15;69.33;98665.13;5123068;28;20055;-67
2021/12/03 01:40:15;;;;;;;17.27;7.85;;;;;;;2.67;70.50;98664.88;5123994;29;20043;-66
2021/12/03 01:43:06;;;;;;;;;;;;;;;2.66;70.83;98662.38;5124044;29;20699;-66
2021/12/03 01:46:03;;;;;;;16.35;7.95;;;;;;;3.13;69.71;98667.00;5104856;29;20438;-67
2021/12/03 01:48:53;;;;;;;15.68;7.97;;;;;;;2.50;71.22;98663.38;5102823;29;20064;-67
2021/12/03 01:51:46;;;;;;;15.23;8.05;;;;;;;3.15;69.37;98659.91;5115754;29;20062;-69
2021/12/03 01:54:36;;;;;;;15.45;7.90;;;;;;;3.01;70.55;98660.84;5122828;29;20054;-67
2021/12/03 01:57:26;;;;;;;14.57;7.40;;;;;;;3.42;68.67;98656.31;5122035;28;20148;-70
2021/12/03 02:00:53;;;;;;;23.55;8.75;;;;;;;2.95;70.09;98650.78;5120254;28;20046;-67
2021/12/03 02:03:47;;;;;;;17.98;8.38;;;;;;;3.42;68.61;98665.00;5121285;29;20086;-69
2021/12/03 02:06:38;;;;;;;23.65;8.73;;;;;;;3.40;68.29;98655.56;5120706;29;20133;-68
2021/12/03 02:09:28;;;;;;;17.63;8.68;;;;;;;2.51;70.91;98669.44;5121420;29;20116;-67
2021/12/03 02:12:18;;;;;;;18.00;8.68;;;;;;;2.70;70.63;98662.06;5122368;29;20088;-67
2021/12/03 02:15:08;;;;;;;19.02;8.40;;;;;;;2.65;71.36;98671.16;5122675;28;20065;-68
2021/12/03 02:17:59;;;;;;;15.90;8.18;;;;;;;2.71;70.40;98670.75;5120339;29;20046;-66
2021/12/03 02:20:52;;;;;;;16.65;8.00;;;;;;;2.63;70.09;98675.66;5122627;28;20043;-65
2021/12/03 02:23:43;;;;;;;;;;;;;;;2.94;69.06;98682.31;5121781;29;20043;-67
2021/12/03 02:26:33;;;;;;;18.90;8.55;;;;;;;3.00;68.22;98689.75;5121657;29;19929;-66
2021/12/03 02:29:24;;;;;;;18.27;8.60;;;;;;;3.09;68.41;98690.91;5122167;29;20047;-67
2021/12/03 02:32:14;;;;;;;15.95;8.63;;;;;;;3.08;68.74;98694.44;5118460;29;20533;-68
2021/12/03 02:35:05;;;;;;;18.80;9.10;;;;;;;3.30;67.42;98698.13;5121905;29;20078;-67
2021/12/03 02:37:56;;;;;;;17.45;8.90;;;;;;;3.17;68.25;98705.16;5120449;29;20083;-69
2021/12/03 02:40:48;;;;;;;16.05;8.32;;;;;;;3.14;67.50;98710.59;5120875;29;20201;-66
2021/12/03 02:43:39;;;;;;;16.67;8.40;;;;;;;3.19;67.64;98711.13;5122113;29;20194;-67
2021/12/03 02:46:29;;;;;;;16.13;8.07;;;;;;;3.12;67.88;98707.25;5101849;29;20074;-67
2021/12/03 02:49:20;;;;;;;16.80;8.48;;;;;;;2.91;68.47;98708.69;5103762;29;20529;-67
2021/12/03 02:52:10;;;;;;;15.55;8.40;;;;;;;2.86;69.15;98702.94;5117639;29;20110;-68
2021/12/03 02:55:01;;;;;;;16.65;8.60;;;;;;;2.94;68.25;98713.72;5126902;28;20134;-68
2021/12/03 02:57:51;;;;;;;16.20;8.70;;;;;;;2.76;68.72;98700.09;5120563;29;20058;-70
2021/12/03 03:00:43;;;;;;;19.83;8.52;;;;;;;3.00;67.61;98713.31;5118028;29;20137;-68
2021/12/03 03:03:34;;;;;;;19.13;8.30;;;;;;;2.87;68.02;98702.81;5120967;29;20151;-69
2021/12/03 03:06:24;;;;;;;16.45;8.55;;;;;;;2.78;68.03;98717.38;5120192;29;20437;-66
2021/12/03 03:09:14;;;;;;;20.05;8.77;;;;;;;2.63;67.81;98715.75;5117323;29;20065;-66
2021/12/03 03:12:05;;;;;;;16.73;8.52;;;;;;;2.46;68.50;98719.50;5121533;29;20052;-67
2021/12/03 03:14:58;;;;;;;19.35;8.60;;;;;;;2.62;67.84;98724.56;5115260;29;20498;-67
2021/12/03 03:17:48;;;;;;;19.43;9.53;;;;;;;2.65;68.06;98718.25;5101493;29;20198;-66
2021/12/03 03:20:41;;;;;;;21.55;8.48;;;;;;;2.67;68.22;98716.41;5102999;29;20570;-66
2021/12/03 03:23:34;;;;;;;17.27;9.18;;;;;;;2.63;68.36;98721.00;5102615;29;20059;-68
2021/12/03 03:26:24;;;;;;;18.37;8.97;;;;;;;2.46;68.92;98711.63;5117352;28;20054;-70
2021/12/03 03:29:16;;;;;;;20.05;9.40;;;;;;;2.52;68.38;98726.09;5118650;29;20057;-69
2021/12/03 03:32:07;;;;;;;23.25;9.68;;;;;;;2.29;69.67;98727.59;5118588;29;20050;-67
2021/12/03 03:34:57;;;;;;;18.45;9.07;;;;;;;1.66;71.66;98728.91;5115879;29;20315;-66
2021/12/03 03:37:48;;;;;;;19.83;9.73;;;;;;;2.24;69.75;98727.88;5120132;29;20105;-67
2021/12/03 03:40:40;;;;;;;18.55;9.88;;;;;;;2.14;70.81;98733.78;5108105;29;20055;-66
2021/12/03 03:43:30;;;;;;;21.45;10.65;;;;;;;2.30;68.70;98727.47;5118131;29;20467;-66
2021/12/03 03:46:20;;;;;;;24.17;10.43;;;;;;;1.92;70.44;98729.94;5120889;29;20596;-66
2021/12/03 03:49:11;;;;;;;19.30;9.60;;;;;;;2.32;69.24;98750.94;5122151;28;20046;-67
2021/12/03 03:52:02;;;;;;;19.92;9.77;;;;;;;2.34;68.89;98756.91;5121563;28;20107;-67
2021/12/03 03:54:52;;;;;;;26.17;11.27;;;;;;;2.26;70.28;98752.16;5117759;29;20050;-67
2021/12/03 03:57:43;;;;;;;24.45;11.05;;;;;;;2.26;70.22;98762.63;5118481;29;20066;-68
2021/12/03 04:00:39;;;;;;;20.23;10.93;;;;;;;2.33;68.69;98758.69;5120390;29;20054;-68
2021/12/03 04:03:30;;;;;;;23.42;11.48;;;;;;;2.44;68.75;98765.84;5120813;29;20120;-67
2021/12/03 04:06:20;;;;;;;24.00;10.88;;;;;;;2.29;69.35;98772.91;5120090;29;20671;-67
2021/12/03 04:09:11;;;;;;;19.08;10.52;;;;;;;2.19;69.21;98787.50;5119735;28;20197;-67
2021/12/03 04:12:01;;;;;;;25.10;11.30;;;;;;;1.98;70.72;98767.91;5121088;28;20050;-68
2021/12/03 04:14:52;;;;;;;28.35;11.40;;;;;;;2.40;69.53;98792.31;5103232;29;20054;-67
2021/12/03 04:17:43;;;;;;;25.30;11.82;;;;;;;2.44;69.41;98797.25;5100521;29;20408;-67
2021/12/03 04:20:33;;;;;;;26.15;11.35;;;;;;;2.39;69.72;98795.88;5102209;29;20048;-66
2021/12/03 04:23:24;;;;;;;26.80;11.90;;;;;;;2.16;70.04;98805.16;5107763;29;20047;-68
2021/12/03 04:26:14;;;;;;;27.35;11.38;;;;;;;2.50;69.65;98807.31;5121691;29;20134;-66
2021/12/03 04:29:04;;;;;;;23.85;11.50;;;;;;;2.42;70.06;98808.72;5119637;29;20130;-67
2021/12/03 04:31:54;;;;;;;18.50;11.02;;;;;;;2.49;69.73;98786.50;5119531;29;20516;-68
2021/12/03 04:34:45;;;;;;;20.38;11.77;;;;;;;2.65;69.42;98807.25;5120402;29;20054;-67
2021/12/03 04:37:35;;;;;;;23.98;11.40;;;;;;;2.70;69.07;98811.28;5122198;28;20186;-67
2021/12/03 04:40:26;;;;;;;23.40;12.23;;;;;;;2.46;69.77;98824.16;5124412;28;20055;-68
2021/12/03 04:43:17;;;;;;;25.42;12.15;;;;;;;2.47;69.97;98804.91;5121424;28;20050;-70
2021/12/03 04:46:07;;;;;;;23.33;11.88;;;;;;;2.60;68.92;98802.34;5123832;28;20579;-67
2021/12/03 04:48:57;;;;;;;26.92;11.98;;;;;;;2.71;69.49;98817.34;5124811;28;20079;-67
2021/12/03 04:51:47;;;;;;;32.00;12.82;;;;;;;2.46;69.17;98807.63;5124114;29;20050;-68
2021/12/03 04:54:37;;;;;;;22.85;12.30;;;;;;;2.63;69.21;98825.69;5109609;29;20454;-67
2021/12/03 04:57:27;;;;;;;26.30;12.27;;;;;;;2.79;68.32;98826.41;5103777;29;20476;-68
2021/12/03 05:00:22;;;;;;;27.95;13.23;;;;;;;2.70;68.67;98839.25;5115026;28;20134;-67
2021/12/03 05:03:13;;;;;;;28.75;13.73;;;;;;;2.77;68.87;98836.13;5130226;28;20051;-68
2021/12/03 05:06:08;;;;;;;25.92;12.52;;;;;;;2.90;68.81;98840.56;5118814;29;20059;-67
2021/12/03 05:09:01;;;;;;;26.27;12.65;;;;;;;2.54;69.27;98842.00;5118478;29;20048;-67
2021/12/03 05:11:51;;;;;;;23.08;12.38;;;;;;;2.83;69.24;98842.75;5123405;29;20047;-66
2021/12/03 05:14:42;;;;;;;22.80;12.15;;;;;;;2.74;68.56;98823.22;5129173;28;20056;-67
2021/12/03 05:17:31;;;;;;;27.10;12.75;;;;;;;2.89;68.02;98829.25;5125820;28;20098;-67
2021/12/03 05:20:21;;;;;;;26.33;12.05;;;;;;;2.87;68.30;98844.22;5123904;29;20050;-69
2021/12/03 05:23:12;;;;;;;25.33;12.77;;;;;;;2.87;68.04;98853.88;5119064;29;20054;-67
2021/12/03 05:26:03;;;;;;;25.30;13.23;;;;;;;2.79;68.02;98854.38;5123689;28;20062;-67
2021/12/03 05:28:53;;;;;;;28.23;14.30;;;;;;;2.64;67.67;98821.31;5140318;28;20535;-68
2021/12/03 05:31:43;;;;;;;25.98;14.30;;;;;;;2.76;68.04;98863.25;5127779;28;20456;-69
2021/12/03 05:34:50;;;;;;;23.73;12.52;;;;;;;2.86;67.67;98867.91;5107652;29;20051;-68
2021/12/03 05:37:40;;;;;;;26.23;12.05;;;;;;;2.95;67.82;98859.47;5113557;28;20552;-69
2021/12/03 05:40:31;;;;;;;22.05;11.27;;;;;;;2.89;67.17;98870.34;5128892;28;20081;-68
2021/12/03 05:43:21;;;;;;;18.77;11.02;;;;;;;2.80;66.42;98874.38;5119795;29;20043;-70
2021/12/03 05:46:11;;;;;;;18.85;10.82;;;;;;;2.77;66.59;98877.19;5121522;28;20118;-69
2021/12/03 05:49:02;;;;;;;24.58;10.57;;;;;;;2.79;66.53;98876.16;5122953;28;20532;-70
2021/12/03 05:51:54;;;;;;;18.30;9.60;;;;;;;2.38;67.41;98875.28;5122875;29;20126;-67
2021/12/03 05:54:46;;;;;;;17.48;9.40;;;;;;;2.50;66.76;98882.38;5109290;29;20078;-70
2021/12/03 05:57:36;;;;;;;19.38;10.68;;;;;;;2.42;66.78;98887.25;5102888;29;20115;-71
2021/12/03 06:00:33;;;;;;;21.60;11.45;;;;;;;2.48;66.45;98887.69;5109160;28;20046;-70
2021/12/03 06:03:23;;;;;;;25.30;11.43;;;;;;;2.35;66.67;98887.63;5112386;29;20070;-67
2021/12/03 06:06:14;;;;;;;23.15;11.80;;;;;;;2.30;67.21;98912.41;5122730;29;20058;-69
2021/12/03 06:09:05;;;;;;;22.15;10.85;;;;;;;2.15;67.98;98895.84;5122106;28;20155;-70
2021/12/03 06:11:55;;;;;;;27.35;11.65;;;;;;;2.29;67.10;98916.78;5121749;28;20430;-70
2021/12/03 06:14:45;;;;;;;18.77;9.63;;;;;;;2.32;67.27;98916.59;5127616;28;20049;-71
2021/12/03 06:17:35;;;;;;;21.15;10.02;;;;;;;2.16;67.05;98905.41;5133151;28;20062;-68
2021/12/03 06:20:26;;;;;;;21.52;10.75;;;;;;;2.26;67.29;98913.53;5136186;28;20131;-69
2021/12/03 06:23:17;;;;;;;22.42;10.95;;;;;;;2.29;67.22;98911.56;5137662;28;20131;-68
2021/12/03 06:26:09;;;;;;;30.25;12.23;;;;;;;2.19;67.28;98907.81;5123505;28;20161;-67
2021/12/03 06:28:59;;;;;;;21.48;10.45;;;;;;;2.22;67.54;98923.34;5110114;29;20126;-67
2021/12/03 06:31:49;;;;;;;18.63;9.73;;;;;;;2.13;66.21;98929.13;5118121;28;20058;-69
2021/12/03 06:34:39;;;;;;;19.40;10.23;;;;;;;2.10;65.96;98945.00;5119730;28;20042;-68
2021/12/03 06:37:30;;;;;;;20.58;10.52;;;;;;;2.05;66.64;98933.94;5107634;28;20053;-68
2021/12/03 06:40:24;;;;;;;17.40;10.05;;;;;;;1.91;66.78;98911.25;5122110;28;20186;-68
2021/12/03 06:43:13;;;;;;;16.52;9.82;;;;;;;1.89;67.03;98928.81;5128292;28;20050;-70
2021/12/03 06:46:03;;;;;;;16.45;9.27;;;;;;;1.76;66.83;98909.56;5133271;28;20054;-70
2021/12/03 06:48:54;;;;;;;21.05;9.30;;;;;;;1.76;67.29;98922.63;5131049;28;20613;-70
2021/12/03 06:51:44;;;;;;;18.83;9.30;;;;;;;1.70;66.73;98931.66;5130196;28;20102;-69
2021/12/03 06:54:35;;;;;;;19.70;9.50;;;;;;;1.67;67.35;98929.22;5129449;28;20050;-68
2021/12/03 06:57:25;;;;;;;22.60;10.02;;;;;;;1.71;67.65;98943.78;5120720;29;20062;-68
2021/12/03 07:00:19;;;;;;;19.80;10.27;;;;;;;1.63;66.60;98938.19;5120398;28;20051;-68
2021/12/03 07:03:09;;;;;;;21.35;10.35;;;;;;;1.86;65.13;98952.53;5119795;29;20054;-70
2021/12/03 07:05:59;;;;;;;24.73;10.70;;;;;;;1.63;66.00;98952.09;5111646;28;20051;-71
2021/12/03 07:08:50;;;;;;;42.58;12.85;;;;;;;1.78;65.83;98960.78;5121285;29;20055;-70
2021/12/03 07:11:41;;;;;;;26.25;11.73;;;;;;;1.98;65.64;98962.25;5124921;28;20051;-70
2021/12/03 07:14:31;;;;;;;22.20;10.27;;;;;;;1.97;66.08;98965.81;5127060;28;20122;-68
2021/12/03 07:17:21;;;;;;;15.93;9.10;;;;;;;2.06;64.83;98953.97;5120958;29;20051;-70
2021/12/03 07:20:12;;;;;;;20.83;9.20;;;;;;;2.20;65.15;98968.81;5120579;28;20105;-70
2021/12/03 07:23:03;;;;;;;18.02;8.95;;;;;;;2.20;64.63;98964.44;5134907;28;20447;-70
2021/12/03 07:25:53;;;;;;;13.52;8.02;;;;;;;2.32;64.76;98966.31;5125328;28;20061;-70
2021/12/03 07:28:43;;;;;;;14.75;7.47;;;;;;;2.63;63.01;98969.69;5132703;28;20104;-70
2021/12/03 07:31:34;;;;;;;14.25;7.43;;;;;;;2.46;63.46;98977.72;5126205;28;20133;-70
2021/12/03 07:34:24;;;;;;;14.82;7.40;;;;;;;2.48;63.23;98958.34;5120354;28;20221;-68
2021/12/03 07:37:14;;;;;;;12.45;6.90;;;;;;;2.65;62.61;98985.28;5134992;28;20038;-70
2021/12/03 07:40:07;;;;;;;11.85;6.60;;;;;;;2.69;61.87;98992.88;5121782;28;20046;-69
2021/12/03 07:42:57;;;;;;;14.80;6.32;;;;;;;2.62;61.14;98988.94;5133737;28;20058;-69
2021/12/03 07:45:49;;;;;;;13.43;5.60;;;;;;;2.84;61.22;98998.91;5129414;28;21293;-69
2021/12/03 07:48:40;;;;;;;14.20;6.15;;;;;;;2.70;62.82;98991.09;5133737;28;20085;-69
2021/12/03 07:51:30;;;;;;;11.95;6.40;;;;;;;2.50;62.59;99003.59;5131302;28;20409;-69
2021/12/03 07:54:22;;;;;;;10.30;5.13;;;;;;;2.91;62.24;99002.84;5137206;28;20043;-69
2021/12/03 07:57:12;;;;;;;9.00;5.40;;;;;;;3.10;60.80;99009.56;5130736;28;20055;-69
2021/12/03 08:00:05;;;;;;;11.10;5.10;;;;;;;3.21;60.19;98999.22;5138327;28;20217;-69
2021/12/03 08:03:01;;;;;;;10.52;5.20;;;;;;;3.16;60.50;99001.31;5128939;28;20047;-69
2021/12/03 08:05:52;;;;;;;13.25;5.35;;;;;;;3.27;60.42;98990.97;5112952;29;20062;-68
2021/12/03 08:08:42;;;;;;;9.05;4.90;;;;;;;3.26;59.55;99005.03;5110804;29;20062;-69
2021/12/03 08:11:32;;;;;;;11.18;5.00;;;;;;;3.28;59.83;99009.25;5112647;28;20417;-69
2021/12/03 08:14:22;;;;;;;8.73;4.32;;;;;;;3.25;60.02;99008.59;5119892;28;20495;-69
2021/12/03 08:17:13;;;;;;;12.02;4.35;;;;;;;3.24;58.58;98989.41;5127852;28;20054;-69
2021/12/03 08:20:05;;;;;;;6.43;4.18;;;;;;;3.23;58.82;99003.44;5136702;28;20046;-69
2021/12/03 08:22:55;;;;;;;10.68;4.13;;;;;;;3.21;59.22;98983.50;5133692;28;20061;-69
2021/12/03 08:25:46;;;;;;;24.33;8.32;;;;;;;3.56;59.37;99015.34;5131469;28;20049;-69
2021/12/03 08:28:37;;;;;;;11.70;4.22;;;;;;;3.26;59.00;99018.97;5134431;28;20050;-69
2021/12/03 08:31:27;;;;;;;11.60;3.25;;;;;;;2.46;59.73;99009.13;5130443;28;20129;-70
2021/12/03 08:34:17;;;;;;;7.40;3.10;;;;;;;3.29;59.31;99010.09;5126118;28;20077;-68
2021/12/03 08:37:08;;;;;;;7.15;2.92;;;;;;;3.67;58.25;99004.97;5122937;28;20138;-69
2021/12/03 08:39:58;;;;;;;9.43;3.28;;;;;;;3.47;58.43;98993.16;5124400;28;20149;-69
2021/12/03 08:42:49;;;;;;;5.80;3.38;;;;;;;4.03;58.26;99008.75;5109617;29;20044;-69
2021/12/03 08:45:40;;;;;;;8.20;3.95;;;;;;;3.84;58.54;99009.16;5125464;28;20048;-68
2021/12/03 08:48:37;;;;;;;8.07;3.88;;;;;;;3.98;57.31;99013.47;5127140;28;20086;-69
2021/12/03 08:51:36;;;;;;;9.77;3.67;;;;;;;4.10;57.31;99015.25;5127543;28;20066;-69
2021/12/03 08:57:36;;;;;;;6.68;3.15;;;;;;;3.93;55.68;99013.75;5136581;28;20158;-70
2021/12/03 09:00:26;;;;;;;7.90;3.08;;;;;;;3.48;57.75;99017.63;5130294;28;20083;-68
2021/12/03 09:03:16;;;;;;;6.82;3.38;;;;;;;3.24;57.30;98988.56;5120932;28;20138;-70
2021/12/03 09:06:07;;;;;;;4.80;2.83;;;;;;;3.65;57.58;99024.41;5118616;28;20058;-69
2021/12/03 09:08:57;;;;;;;6.43;3.10;;;;;;;3.92;56.71;99012.09;5122503;28;20050;-69
2021/12/03 09:11:47;;;;;;;10.15;4.78;;;;;;;4.16;56.28;99020.09;5126090;28;20101;-69
2021/12/03 09:17:56;;;;;;;3.10;2.55;;;;;;;3.81;57.36;99024.22;5125163;28;20058;-70
2021/12/03 09:20:58;;;;;;;6.50;3.20;;;;;;;3.91;57.50;99017.44;5115140;28;20441;-68
2021/12/03 09:26:43;;;;;;;18.88;5.85;;;;;;;4.77;57.04;99022.97;5131303;28;20138;-70
2021/12/03 09:29:35;;;;;;;10.55;3.45;;;;;;;4.99;55.06;99021.47;5119974;29;20095;-69
2021/12/03 09:32:30;;;;;;;7.68;2.72;;;;;;;3.93;56.99;99005.88;5105882;29;20059;-68
2021/12/03 09:35:20;;;;;;;8.10;3.00;;;;;;;4.42;56.91;99020.13;5123199;28;20054;-69
2021/12/03 09:38:11;;;;;;;9.73;3.42;;;;;;;4.62;57.65;99022.22;5122983;28;20070;-68
2021/12/03 09:41:10;;;;;;;10.05;3.85;;;;;;;4.92;55.97;99021.88;5142737;28;20124;-69
2021/12/03 09:44:01;;;;;;;8.15;4.15;;;;;;;4.59;56.07;99022.44;5141838;28;20046;-68
2021/12/03 09:46:51;;;;;;;8.50;3.78;;;;;;;4.53;56.16;99016.78;5141763;28;20101;-69
2021/12/03 09:49:42;;;;;;;6.88;3.50;;;;;;;5.00;56.62;99017.88;5139797;28;20046;-68
2021/12/03 09:52:49;;;;;;;10.82;3.60;;;;;;;4.92;54.99;99018.44;5143013;28;20050;-68
2021/12/03 09:55:42;;;;;;;9.02;3.75;;;;;;;4.89;54.72;98997.63;5138625;28;20096;-68
2021/12/03 10:11:39;;;;;;;7.00;2.63;;;;;;;5.12;54.71;99004.72;5141684;28;20065;-68
2021/12/03 10:20:37;;;;;;;4.13;2.30;;;;;;;4.97;53.88;98994.44;5135115;28;20062;-68
2021/12/03 10:30:11;;;;;;;7.22;3.28;;;;;;;5.47;53.38;98985.56;5141684;28;20524;-69
2021/12/03 10:33:28;;;;;;;11.45;3.83;;;;;;;5.14;52.38;98952.88;5140175;28;20034;-68
2021/12/03 10:36:43;;;;;;;9.57;2.80;;;;;;;5.69;53.37;98978.72;5134919;28;20179;-68
2021/12/03 10:45:30;;;;;;;7.25;2.58;;;;;;;4.91;55.36;98979.97;5141228;28;20049;-68
2021/12/03 10:48:36;;;;;;;8.65;3.03;;;;;;;5.26;54.68;98979.22;5140891;28;20118;-68
2021/12/03 11:04:34;;;;;;;8.90;3.35;;;;;;;5.39;54.54;98949.31;5128304;28;20034;-69
2021/12/03 11:11:24;;;;;;;7.57;3.58;;;;;;;5.57;54.18;98933.97;5115097;28;20685;-67
2021/12/03 11:15:10;;;;;;;6.00;3.40;;;;;;;5.85;54.13;98938.00;5120743;29;20058;-69
2021/12/03 11:21:30;;;;;;;5.28;3.40;;;;;;;5.42;53.93;98911.44;5132275;28;20109;-69
2021/12/03 11:47:33;;;;;;;8.98;4.28;;;;;;;6.06;53.13;98889.97;5134828;28;20053;-69
2021/12/03 11:58:00;;;;;;;10.95;3.65;;;;;;;5.98;53.56;98887.13;5136889;28;20050;-68
2021/12/03 12:01:22;;;;;;;7.70;3.50;;;;;;;6.28;53.31;98876.00;5124087;28;20119;-69
2021/12/03 12:14:44;;;;;;;11.38;3.75;;;;;;;6.07;53.92;98855.66;5124798;28;20129;-72
2021/12/03 12:18:14;;;;;;;11.77;4.20;;;;;;;6.05;54.91;98870.72;5120145;29;20136;-69
2021/12/03 12:20:25;;;;;;;10.30;4.05;;;;;;;6.34;52.36;98852.66;5124246;28;20050;-71
2021/12/03 12:31:00;;;;;;;8.25;4.13;;;;;;;6.00;54.37;98857.09;5121454;29;20134;-69
2021/12/03 12:34:20;;;;;;;8.60;3.70;;;;;;;5.69;54.53;98847.19;5117227;29;20074;-71
2021/12/03 12:57:08;;;;;;;5.97;3.22;;;;;;;4.19;55.26;98685.78;5115236;29;20046;-91
2021/12/03 13:28:42;;;;;;;7.15;3.03;;;;;;;5.14;54.64;98729.47;5140676;28;20473;-89
2021/12/03 14:19:12;;;;;;;7.85;2.40;;;;;;;5.46;53.09;98770.88;5102607;29;20111;-69
2021/12/03 14:23:12;;;;;;;7.40;2.50;;;;;;;5.45;53.60;98768.38;5103092;29;20120;-68
2021/12/03 14:43:51;;;;;;;4.97;2.28;;;;;;;4.85;56.12;98759.72;5110617;29;20115;-66
2021/12/03 14:47:29;;;;;;;7.43;2.38;;;;;;;5.22;54.60;98747.28;5112711;29;20070;-66
2021/12/03 14:50:36;;;;;;;3.47;1.90;;;;;;;5.01;55.06;98744.50;5107472;29;20054;-67
2021/12/03 14:53:42;;;;;;;7.78;2.28;;;;;;;5.35;54.24;98736.69;5106110;29;20986;-65
2021/12/03 14:56:35;;;;;;;3.67;2.15;;;;;;;4.88;54.53;98752.47;5110758;29;20043;-69
2021/12/03 14:59:30;;;;;;;5.75;1.73;;;;;;;5.16;53.64;98738.06;5106053;29;20055;-67
2021/12/03 15:02:52;;;;;;;5.60;1.90;;;;;;;5.23;52.97;98745.50;5103088;29;20211;-65
2021/12/03 15:06:03;;;;;;;6.68;1.80;;;;;;;5.04;53.82;98744.28;5102979;29;20091;-69
2021/12/03 15:08:59;;;;;;;4.22;1.90;;;;;;;4.95;53.48;98745.78;5106395;29;20054;-66
2021/12/03 15:21:25;;;;;;;3.42;1.50;;;;;;;4.59;53.87;98727.50;5106181;29;20099;-68
2021/12/03 15:30:43;;;;;;;3.90;1.73;;;;;;;4.93;52.61;98731.09;5090552;29;20062;-68
2021/12/03 15:33:57;;;;;;;9.43;2.50;;;;;;;5.23;52.32;98729.72;5105136;29;20417;-68
2021/12/03 16:05:04;;;;;;;6.13;2.15;;;;;;;4.64;54.79;98715.72;5105832;29;20054;-67
2021/12/03 16:08:17;;;;;;;7.90;2.47;;;;;;;4.66;54.83;98712.97;5106642;29;20054;-71
2021/12/03 16:26:31;;;;;;;11.65;3.25;;;;;;;4.17;56.41;98704.28;5096886;29;20557;-68
2021/12/03 16:54:09;;;;;;;13.15;5.28;;;;;;;4.12;57.27;98682.75;5107482;29;20110;-66
2021/12/03 16:57:00;;;;;;;9.23;4.85;;;;;;;3.87;58.47;98685.47;5114788;29;20514;-67
2021/12/03 16:59:52;;;;;;;11.32;4.18;;;;;;;3.73;59.43;98673.34;5107643;29;20155;-68
2021/12/03 17:02:52;;;;;;;;;;;;;;;4.11;58.27;98665.34;5107754;29;20036;-69
2021/12/03 17:08:48;;;;;;;9.52;4.15;;;;;;;4.40;57.65;98655.34;5113083;29;20055;-68
2021/12/03 17:11:57;;;;;;;10.07;4.10;;;;;;;4.28;57.44;98666.75;5107325;29;20151;-66
2021/12/03 17:15:07;;;;;;;10.68;4.72;;;;;;;4.24;58.22;98657.44;5104525;29;20070;-67
2021/12/03 17:18:52;;;;;;;17.67;5.10;;;;;;;4.19;57.94;98647.25;5101865;29;20624;-64
2021/12/03 17:31:46;;;;;;;11.25;4.97;;;;;;;4.25;58.06;98645.97;5104301;29;20110;-69
2021/12/03 17:47:16;;;;;;;12.30;4.53;;;;;;;4.35;58.43;98623.34;5096674;29;20450;-69
2021/12/03 17:50:09;;;;;;;9.77;4.63;;;;;;;4.22;58.64;98607.66;5106900;29;20083;-69
2021/12/03 17:56:08;;;;;;;12.13;4.80;;;;;;;4.48;57.80;98605.72;5102489;29;20051;-66
2021/12/03 18:05:21;;;;;;;10.13;4.97;;;;;;;4.47;57.57;98579.59;5088877;29;20070;-67
2021/12/03 18:08:23;;;;;;;10.98;4.93;;;;;;;4.67;56.62;98560.56;5092449;29;20137;-68
2021/12/03 18:46:08;;;;;;;5.88;3.00;;;;;;;5.16;53.13;98545.38;5097216;29;20130;-74
2021/12/03 18:55:13;;;;;;;8.60;3.03;;;;;;;4.59;53.38;98513.00;5098473;29;20043;-70
2021/12/03 18:58:06;;;;;;;5.43;2.92;;;;;;;4.76;53.13;98524.00;5111542;28;20133;-69
2021/12/03 19:00:57;;;;;;;7.43;3.17;;;;;;;4.79;52.71;98516.72;5104467;29;20054;-70
2021/12/03 19:06:47;;;;;;;7.80;3.80;;;;;;;4.22;53.90;98522.88;5104631;29;20133;-65
2021/12/03 19:09:40;;;;;;;4.88;2.80;;;;;;;4.97;53.64;98521.50;5102262;29;20501;-72
2021/12/03 19:12:32;;;;;;;8.43;3.38;;;;;;;5.21;52.15;98508.25;5105815;29;20043;-66
2021/12/03 19:15:23;;;;;;;7.97;2.97;;;;;;;5.16;52.33;98501.53;5121997;29;20078;-65
2021/12/03 19:18:13;;;;;;;9.50;3.72;;;;;;;4.63;52.38;98482.09;5112503;29;20054;-69
2021/12/03 19:21:15;;;;;;;7.85;3.22;;;;;;;5.01;52.66;98481.75;5100993;29;20654;-70
2021/12/03 19:24:08;;;;;;;5.85;3.35;;;;;;;4.92;53.41;98491.19;5106958;29;20050;-71
2021/12/03 19:26:58;;;;;;;8.15;3.80;;;;;;;4.75;53.23;98473.28;5106613;29;20110;-69
2021/12/03 19:29:48;;;;;;;9.25;3.75;;;;;;;4.53;53.31;98432.09;5101921;29;20122;-72
2021/12/03 19:32:38;;;;;;;10.50;3.40;;;;;;;5.04;52.40;98465.75;5102194;29;20058;-68
2021/12/03 19:35:28;;;;;;;9.00;3.58;;;;;;;5.16;52.40;98459.47;5105559;29;20106;-68
2021/12/03 19:38:21;;;;;;;7.97;3.95;;;;;;;5.55;50.60;98449.34;5102240;29;20118;-65
2021/12/03 19:41:19;;;;;;;7.13;3.72;;;;;;;4.94;52.05;98451.66;5101865;29;20114;-69
2021/12/03 19:44:12;;;;;;;8.45;3.25;;;;;;;4.86;52.35;98435.66;5101955;29;20731;-69
2021/12/03 19:47:04;;;;;;;8.75;3.25;;;;;;;4.86;53.50;98430.41;5102532;29;20060;-65
2021/12/03 19:53:13;;;;;;;9.32;3.63;;;;;;;5.39;51.12;98428.72;5089201;29;20064;-68
2021/12/03 19:56:04;;;;;;;7.30;3.70;;;;;;;5.27;51.39;98413.13;5091417;29;20063;-66
2021/12/03 19:58:56;;;;;;;6.82;3.97;;;;;;;5.05;51.52;98390.38;5082551;29;20055;-67
2021/12/03 20:01:47;;;;;;;7.75;4.10;;;;;;;4.70;52.48;98394.88;5087953;29;20079;-65
2021/12/03 20:04:41;;;;;;;10.73;3.97;;;;;;;4.87;51.27;98382.19;5106465;29;20127;-72
2021/12/03 20:07:39;;;;;;;9.82;5.68;;;;;;;5.02;51.49;98403.75;5098410;29;20047;-70